Terminal Aerodrome Forecast
Issued by NWS

Home | Current Version | Previous Version | Text Only | Print | Product List | Glossary On
Versions: 1 2 3 4 5 6 7 8 9 10 11 12 13 14 15 16 17 18 19 20 21 22
655
FTUS46 KLOX 240713 AAB
TAFSBP
TAF AMD
KSBP 240713Z 2407/2506 VRB03KT P6SM OVC015
     FM241400 VRB03KT P6SM BKN020 OVC035
     FM241800 30010KT P6SM SCT025 BKN040
     FM250200 31010KT P6SM OVC100=

USA.gov is the U.S. government's official web portal to all federal, state and local government web resources and services.